createdAt,value
2018-09-17T00:01:33.002Z,99.70
2018-09-17T00:04:01.525Z,99.80
2018-09-17T00:06:30.049Z,99.60
2018-09-17T00:08:58.511Z,99.90
2018-09-17T00:11:26.962Z,99.90
2018-09-17T00:13:55.425Z,99.90
2018-09-17T00:16:23.918Z,99.90
2018-09-17T00:18:52.359Z,99.90
2018-09-17T00:21:20.836Z,99.90
2018-09-17T00:23:49.330Z,99.90
2018-09-17T00:26:17.811Z,99.90
2018-09-17T00:28:46.625Z,99.90
2018-09-17T00:31:15.119Z,99.90
2018-09-17T00:33:43.761Z,99.90
2018-09-17T00:36:12.590Z,99.90
2018-09-17T00:38:41.017Z,99.90
2018-09-17T00:41:09.467Z,99.90
2018-09-17T00:43:38.031Z,99.90
2018-09-17T00:46:06.514Z,99.90
2018-09-17T00:48:35.627Z,99.90
2018-09-17T00:51:04.411Z,99.90
2018-09-17T00:53:32.871Z,99.90
2018-09-17T00:56:01.871Z,99.90
2018-09-17T00:58:30.325Z,99.90
2018-09-17T01:00:59.153Z,99.90
2018-09-17T01:03:27.933Z,99.90
2018-09-17T01:05:56.739Z,99.90
2018-09-17T01:08:25.176Z,99.90
2018-09-17T01:10:54.048Z,99.90
2018-09-17T01:13:22.498Z,99.90
2018-09-17T01:15:50.966Z,99.90
2018-09-17T01:18:19.405Z,99.90
2018-09-17T01:20:47.877Z,99.90
2018-09-17T01:23:16.364Z,99.90
2018-09-17T01:25:44.843Z,99.90
2018-09-17T01:28:13.311Z,99.90
2018-09-17T01:30:41.839Z,99.90
2018-09-17T01:33:10.355Z,99.90
2018-09-17T01:35:39.394Z,99.90
2018-09-17T01:38:07.850Z,99.90
2018-09-17T01:40:36.296Z,99.90
2018-09-17T01:43:04.816Z,99.90
2018-09-17T01:45:33.288Z,99.90
2018-09-17T01:48:01.818Z,99.90
2018-09-17T01:50:30.277Z,99.90
2018-09-17T01:52:58.789Z,99.90
2018-09-17T01:55:27.340Z,99.90
2018-09-17T01:57:55.843Z,99.90
2018-09-17T02:00:24.281Z,99.90
2018-09-17T02:02:53.085Z,99.90
2018-09-17T02:05:21.839Z,99.90
2018-09-17T02:07:50.496Z,99.90
2018-09-17T02:10:19.210Z,99.90
2018-09-17T02:12:47.697Z,99.90
2018-09-17T02:15:16.135Z,99.90
2018-09-17T02:17:44.603Z,99.90
2018-09-17T02:20:13.445Z,99.90
2018-09-17T02:22:41.981Z,99.90
2018-09-17T02:25:10.476Z,99.90
2018-09-17T02:27:39.064Z,99.90
2018-09-17T02:30:07.569Z,99.90
2018-09-17T02:32:36.045Z,99.90
2018-09-17T02:35:04.907Z,99.90
2018-09-17T02:37:33.395Z,99.90
2018-09-17T02:40:01.901Z,99.90
2018-09-17T02:42:30.961Z,99.90
2018-09-17T02:44:59.394Z,99.90
2018-09-17T02:47:27.864Z,99.90
2018-09-17T02:49:56.303Z,99.90
2018-09-17T02:52:24.767Z,99.90
2018-09-17T02:54:53.211Z,99.90
2018-09-17T02:57:21.683Z,99.90
2018-09-17T02:59:50.459Z,99.90
2018-09-17T03:02:19.280Z,99.90
2018-09-17T03:04:47.721Z,99.90
2018-09-17T03:07:16.269Z,99.90
2018-09-17T03:09:44.735Z,99.90
2018-09-17T03:12:13.234Z,99.90
2018-09-17T03:14:41.725Z,99.90
2018-09-17T03:17:13.323Z,99.90
2018-09-17T03:19:42.831Z,99.90
2018-09-17T03:22:11.894Z,99.90
2018-09-17T03:24:40.381Z,99.90
2018-09-17T03:27:09.229Z,99.90
2018-09-17T03:29:37.741Z,99.90
2018-09-17T03:32:06.208Z,99.90
2018-09-17T03:34:34.689Z,99.90
2018-09-17T03:37:03.180Z,99.90
2018-09-17T03:39:31.684Z,99.90
2018-09-17T03:42:00.143Z,99.90
2018-09-17T03:44:28.605Z,99.90
2018-09-17T03:46:57.075Z,99.90
2018-09-17T03:49:25.874Z,99.90
2018-09-17T03:51:54.352Z,99.90
2018-09-17T03:54:22.851Z,99.90
2018-09-17T03:56:51.389Z,99.90
2018-09-17T03:59:20.132Z,99.90
2018-09-17T04:01:48.583Z,99.90
2018-09-17T04:04:17.090Z,99.90
2018-09-17T04:06:45.558Z,99.90
2018-09-17T04:09:14.455Z,99.90
2018-09-17T04:11:42.904Z,99.90
2018-09-17T04:14:11.626Z,99.90
2018-09-17T04:16:40.423Z,99.90
2018-09-17T04:19:08.893Z,99.90
2018-09-17T04:21:37.365Z,99.90
2018-09-17T04:24:05.923Z,99.90
2018-09-17T04:26:34.410Z,99.90
2018-09-17T04:29:02.952Z,99.90
2018-09-17T04:31:31.526Z,99.90
2018-09-17T04:34:00.025Z,99.90
2018-09-17T04:36:28.504Z,99.90
2018-09-17T04:38:57.024Z,99.90
2018-09-17T04:41:25.595Z,99.90
2018-09-17T04:43:54.107Z,99.90
2018-09-17T04:46:22.531Z,99.90
2018-09-17T04:48:51.075Z,99.90
2018-09-17T04:51:19.539Z,99.90
2018-09-17T04:53:48.026Z,99.90
2018-09-17T04:56:16.544Z,99.90
2018-09-17T04:58:45.043Z,99.90
2018-09-17T05:01:13.502Z,99.90
2018-09-17T05:03:41.967Z,99.90
2018-09-17T05:06:10.752Z,99.90
2018-09-17T05:08:39.252Z,99.90
2018-09-17T05:11:07.784Z,99.90
2018-09-17T05:13:36.267Z,99.90
2018-09-17T05:16:04.803Z,99.90
2018-09-17T05:18:33.250Z,99.90
2018-09-17T05:21:01.747Z,99.90
2018-09-17T05:23:30.203Z,99.90
2018-09-17T05:25:58.742Z,99.90
2018-09-17T05:28:27.204Z,99.90
2018-09-17T05:30:55.769Z,99.90
2018-09-17T05:33:24.272Z,99.90
2018-09-17T05:35:52.998Z,99.90
2018-09-17T05:38:21.446Z,99.90
2018-09-17T05:40:50.204Z,99.90
2018-09-17T05:43:18.992Z,99.90
2018-09-17T05:45:47.622Z,99.90
2018-09-17T05:48:16.100Z,99.90
2018-09-17T05:50:44.594Z,99.90
2018-09-17T05:53:13.058Z,99.90
2018-09-17T05:55:41.536Z,99.90
2018-09-17T05:58:10.010Z,99.90
2018-09-17T06:00:38.536Z,99.90
2018-09-17T06:03:06.979Z,99.90
2018-09-17T06:05:35.517Z,99.90
2018-09-17T06:08:03.969Z,99.90
2018-09-17T06:10:32.432Z,99.90
2018-09-17T06:13:00.884Z,99.90
2018-09-17T06:15:29.402Z,99.90
2018-09-17T06:17:57.877Z,99.90
2018-09-17T06:20:26.343Z,99.90
2018-09-17T06:22:55.065Z,99.90
2018-09-17T06:25:23.523Z,99.90
2018-09-17T06:27:51.988Z,99.90
2018-09-17T06:30:20.562Z,99.90
2018-09-17T06:32:49.036Z,99.90
2018-09-17T06:35:17.566Z,99.90
2018-09-17T06:37:46.400Z,99.90
2018-09-17T06:40:14.962Z,99.90
2018-09-17T06:42:43.797Z,99.90
2018-09-17T06:45:12.275Z,99.90
2018-09-17T06:47:41.144Z,99.90
2018-09-17T06:50:10.002Z,99.90
2018-09-17T06:52:38.504Z,99.90
2018-09-17T06:55:06.711Z,99.90
2018-09-17T06:57:35.190Z,99.90
2018-09-17T07:00:03.779Z,99.90
2018-09-17T07:02:32.270Z,99.90
2018-09-17T07:05:01.027Z,99.90
2018-09-17T07:07:29.945Z,99.90
2018-09-17T07:09:59.007Z,99.90
2018-09-17T07:12:27.554Z,99.90
2018-09-17T07:14:56.001Z,99.90
2018-09-17T07:17:24.484Z,99.90
2018-09-17T07:19:53.327Z,99.90
2018-09-17T07:22:21.829Z,99.90
2018-09-17T07:24:50.557Z,99.90
2018-09-17T07:27:19.025Z,99.90
2018-09-17T07:29:47.561Z,99.90
2018-09-17T07:32:16.026Z,99.90
2018-09-17T07:34:44.480Z,99.90
2018-09-17T07:37:13.397Z,99.90
2018-09-17T07:39:42.003Z,99.90
2018-09-17T07:42:10.503Z,99.90
2018-09-17T07:44:38.990Z,99.90
2018-09-17T07:47:07.554Z,99.90
2018-09-17T07:49:36.144Z,99.90
2018-09-17T07:52:04.732Z,99.90
2018-09-17T07:54:33.275Z,99.90
2018-09-17T07:57:01.785Z,99.90
2018-09-17T07:59:30.288Z,99.90
2018-09-17T08:01:58.779Z,99.90
2018-09-17T08:04:27.560Z,99.90
2018-09-17T08:06:56.382Z,99.90
2018-09-17T08:09:25.207Z,99.90
2018-09-17T08:11:53.758Z,99.90
2018-09-17T08:14:22.287Z,99.90
2018-09-17T08:16:50.821Z,99.90
2018-09-17T08:19:19.352Z,99.90
2018-09-17T08:21:47.883Z,99.90
2018-09-17T08:24:16.748Z,99.90
2018-09-17T08:26:45.280Z,99.90
2018-09-17T08:29:13.799Z,99.90
2018-09-17T08:31:42.292Z,99.90
2018-09-17T08:34:10.847Z,99.90
2018-09-17T08:36:39.321Z,99.90
2018-09-17T08:39:10.555Z,99.90
2018-09-17T08:41:39.752Z,99.90
2018-09-17T08:44:08.295Z,99.90
2018-09-17T08:46:36.793Z,99.90
2018-09-17T08:49:05.684Z,99.90
2018-09-17T08:51:34.176Z,99.90
2018-09-17T08:54:02.726Z,99.80
2018-09-17T08:56:36.887Z,99.90
2018-09-17T08:59:05.788Z,99.90
2018-09-17T09:01:39.533Z,99.90
2018-09-17T09:04:13.249Z,99.10
2018-09-17T09:06:46.853Z,99.00
2018-09-17T09:09:15.548Z,98.40
2018-09-17T09:11:52.105Z,97.80
2018-09-17T09:14:26.443Z,97.70
2018-09-17T09:16:54.928Z,97.70
2018-09-17T09:19:23.398Z,97.00
2018-09-17T09:21:51.988Z,96.10
2018-09-17T09:24:20.456Z,95.90
2018-09-17T09:26:49.057Z,95.80
2018-09-17T09:29:17.566Z,95.30
2018-09-17T09:31:46.067Z,95.20
2018-09-17T09:34:14.637Z,96.20
2018-09-17T09:36:43.099Z,95.30
2018-09-17T09:39:12.020Z,94.40
2018-09-17T09:41:40.627Z,94.30
2018-09-17T09:44:09.701Z,94.10
2018-09-17T09:46:38.506Z,93.60
2018-09-17T09:49:07.007Z,93.90
2018-09-17T09:51:36.082Z,93.20
2018-09-17T09:54:04.868Z,92.80
2018-09-17T09:56:33.424Z,91.80
2018-09-17T09:59:01.970Z,91.50
2018-09-17T10:01:36.687Z,91.00
2018-09-17T10:04:10.792Z,91.70
2018-09-17T10:06:39.854Z,91.40
2018-09-17T10:09:13.688Z,89.60
2018-09-17T10:11:47.445Z,90.10
2018-09-17T10:14:21.151Z,90.70
2018-09-17T10:16:55.058Z,89.80
2018-09-17T10:19:24.767Z,90.20
2018-09-17T10:21:53.327Z,88.90
2018-09-17T10:24:22.107Z,87.80
2018-09-17T10:26:50.655Z,86.60
2018-09-17T10:29:19.120Z,86.10
2018-09-17T10:31:47.623Z,85.40
2018-09-17T10:34:16.075Z,85.10
2018-09-17T10:36:44.647Z,84.60
2018-09-17T10:39:15.346Z,83.10
2018-09-17T10:41:43.831Z,83.40
2018-09-17T10:44:12.360Z,83.00
2018-09-17T10:46:40.876Z,83.50
2018-09-17T10:49:10.285Z,83.40
2018-09-17T10:51:38.777Z,82.00
2018-09-17T10:54:07.680Z,82.80
2018-09-17T10:56:36.477Z,83.40
2018-09-17T10:59:05.339Z,81.20
2018-09-17T11:01:33.871Z,81.10
2018-09-17T11:04:02.361Z,81.50
2018-09-17T11:06:30.824Z,80.60
2018-09-17T11:08:59.337Z,79.50
2018-09-17T11:14:02.617Z,79.20
2018-09-17T11:16:31.492Z,77.60
2018-09-17T11:19:00.020Z,77.70
2018-09-17T11:21:28.476Z,77.80
2018-09-17T11:23:56.979Z,78.20
2018-09-17T11:26:25.512Z,77.30
2018-09-17T11:28:54.351Z,78.10
2018-09-17T11:31:22.846Z,77.40
2018-09-17T11:33:51.372Z,77.10
2018-09-17T11:36:19.856Z,76.90
2018-09-17T11:38:48.327Z,77.00
2018-09-17T11:41:16.870Z,76.30
2018-09-17T11:43:46.236Z,75.20
2018-09-17T11:46:14.691Z,75.30
2018-09-17T11:48:43.174Z,75.30
2018-09-17T11:51:11.656Z,73.60
2018-09-17T11:53:40.141Z,72.40
2018-09-17T11:56:08.920Z,70.90
2018-09-17T11:58:37.411Z,72.40
2018-09-17T12:01:11.119Z,72.80
2018-09-17T12:03:45.137Z,72.10
2018-09-17T12:06:17.910Z,71.80
2018-09-17T12:08:46.900Z,71.00
2018-09-17T12:11:15.386Z,71.20
2018-09-17T12:13:44.335Z,71.00
2018-09-17T12:16:12.831Z,69.10
2018-09-17T12:18:41.283Z,69.50
2018-09-17T12:21:09.768Z,68.30
2018-09-17T12:23:38.240Z,69.50
2018-09-17T12:26:06.747Z,70.20
2018-09-17T12:28:35.232Z,68.50
2018-09-17T12:31:03.749Z,69.40
2018-09-17T12:33:32.258Z,67.00
2018-09-17T12:36:00.680Z,67.60
2018-09-17T12:38:29.172Z,67.90
2018-09-17T12:40:57.670Z,66.00
2018-09-17T12:43:27.730Z,65.90
2018-09-17T12:45:56.306Z,68.00
2018-09-17T12:48:24.753Z,65.40
2018-09-17T12:50:53.226Z,64.90
2018-09-17T12:53:22.028Z,65.10
2018-09-17T12:55:50.499Z,66.50
2018-09-17T12:58:18.968Z,64.40
2018-09-17T13:00:47.474Z,63.60
2018-09-17T13:03:15.993Z,63.20
2018-09-17T13:05:44.707Z,61.00
2018-09-17T13:08:13.198Z,62.40
2018-09-17T13:10:41.712Z,60.20
2018-09-17T13:13:10.225Z,58.30
2018-09-17T13:15:43.971Z,57.30
2018-09-17T13:18:12.438Z,57.90
2018-09-17T13:20:40.900Z,57.80
2018-09-17T13:23:09.371Z,57.90
2018-09-17T13:25:38.128Z,57.60
2018-09-17T13:28:06.922Z,59.60
2018-09-17T13:30:35.723Z,56.80
2018-09-17T13:33:04.427Z,56.00
2018-09-17T13:35:32.926Z,56.30
2018-09-17T13:38:01.515Z,55.60
2018-09-17T13:40:30.023Z,55.80
2018-09-17T13:42:58.765Z,56.10
2018-09-17T13:45:27.243Z,55.70
2018-09-17T13:47:56.015Z,56.20
2018-09-17T13:50:24.494Z,57.00
2018-09-17T13:52:53.044Z,57.40
2018-09-17T13:55:21.478Z,56.70
2018-09-17T13:57:50.012Z,54.20
2018-09-17T14:00:18.477Z,54.40
2018-09-17T14:02:46.961Z,54.10
2018-09-17T14:05:15.454Z,54.30
2018-09-17T14:07:43.939Z,55.50
2018-09-17T14:10:12.505Z,56.30
2018-09-17T14:12:40.947Z,55.80
2018-09-17T14:15:16.102Z,54.20
2018-09-17T14:17:45.389Z,54.60
2018-09-17T14:20:13.840Z,52.40
2018-09-17T14:22:42.977Z,53.40
2018-09-17T14:25:11.775Z,52.80
2018-09-17T14:27:40.540Z,52.50
2018-09-17T14:30:09.336Z,52.70
2018-09-17T14:32:43.283Z,53.60
2018-09-17T14:35:12.408Z,53.50
2018-09-17T14:37:41.000Z,53.40
2018-09-17T14:40:10.047Z,53.80
2018-09-17T14:42:38.576Z,54.60
2018-09-17T14:45:07.075Z,53.60
2018-09-17T14:47:35.553Z,54.40
2018-09-17T14:50:04.294Z,54.50
2018-09-17T14:52:33.022Z,53.70
2018-09-17T14:55:01.488Z,54.20
2018-09-17T14:57:30.568Z,53.50
2018-09-17T14:59:59.762Z,53.90
2018-09-17T15:02:28.304Z,55.00
2018-09-17T15:04:56.792Z,54.30
2018-09-17T15:07:25.562Z,54.40
2018-09-17T15:09:54.432Z,53.50
2018-09-17T15:12:22.933Z,54.10
2018-09-17T15:14:51.423Z,54.60
2018-09-17T15:17:20.138Z,52.80
2018-09-17T15:19:48.926Z,53.70
2018-09-17T15:22:17.453Z,54.20
2018-09-17T15:24:46.258Z,54.20
2018-09-17T15:27:14.694Z,54.10
2018-09-17T15:29:43.596Z,53.90
2018-09-17T15:32:12.416Z,54.30
2018-09-17T15:34:41.162Z,55.80
2018-09-17T15:37:12.218Z,54.80
2018-09-17T15:39:40.687Z,55.00
2018-09-17T15:42:09.163Z,55.10
2018-09-17T15:44:37.632Z,55.00
2018-09-17T15:47:06.144Z,55.20
2018-09-17T15:49:34.669Z,55.00
2018-09-17T15:52:03.548Z,56.20
2018-09-17T15:54:32.106Z,56.80
2018-09-17T15:57:00.806Z,56.00
2018-09-17T15:59:29.303Z,56.70
2018-09-17T16:01:57.781Z,57.10
2018-09-17T16:04:26.544Z,55.50
2018-09-17T16:06:54.992Z,55.40
2018-09-17T16:09:23.963Z,55.80
2018-09-17T16:11:52.529Z,56.50
2018-09-17T16:14:21.616Z,56.30
2018-09-17T16:16:50.066Z,58.50
2018-09-17T16:19:19.067Z,58.10
2018-09-17T16:21:47.743Z,58.40
2018-09-17T16:24:16.556Z,60.00
2018-09-17T16:26:45.003Z,60.20
2018-09-17T16:29:13.795Z,60.70
2018-09-17T16:31:42.230Z,61.60
2018-09-17T16:34:10.712Z,63.00
2018-09-17T16:36:39.475Z,63.80
2018-09-17T16:39:09.218Z,64.20
2018-09-17T16:41:38.027Z,64.10
2018-09-17T16:44:06.580Z,65.00
2018-09-17T16:46:35.803Z,65.60
2018-09-17T16:49:04.344Z,65.50
2018-09-17T16:51:32.775Z,66.30
2018-09-17T16:54:04.289Z,67.30
2018-09-17T16:56:32.796Z,67.60
2018-09-17T16:59:01.402Z,68.70
2018-09-17T17:01:29.903Z,69.10
2018-09-17T17:03:58.635Z,69.20
2018-09-17T17:06:27.115Z,69.90
2018-09-17T17:08:55.593Z,70.80
2018-09-17T17:11:24.202Z,71.20
2018-09-17T17:13:52.516Z,71.50
2018-09-17T17:16:21.036Z,72.00
2018-09-17T17:18:49.801Z,70.60
2018-09-17T17:21:18.186Z,70.50
2018-09-17T17:23:46.861Z,69.50
2018-09-17T17:26:15.645Z,70.00
2018-09-17T17:28:44.129Z,69.80
2018-09-17T17:31:12.885Z,70.80
2018-09-17T17:33:41.619Z,70.90
2018-09-17T17:36:10.099Z,70.50
2018-09-17T17:38:38.805Z,70.00
2018-09-17T17:41:07.942Z,69.30
2018-09-17T17:43:36.371Z,70.30
2018-09-17T17:46:05.147Z,70.00
2018-09-17T17:48:33.643Z,70.20
2018-09-17T17:51:02.193Z,70.50
2018-09-17T17:53:31.159Z,70.80
2018-09-17T17:55:59.640Z,71.40
2018-09-17T17:58:28.355Z,71.30
2018-09-17T18:00:57.313Z,71.70
2018-09-17T18:03:25.718Z,71.20
2018-09-17T18:05:54.487Z,71.70
2018-09-17T18:08:23.022Z,72.60
2018-09-17T18:10:51.522Z,72.60
2018-09-17T18:13:20.062Z,72.00
2018-09-17T18:15:48.652Z,72.20
2018-09-17T18:18:17.586Z,72.70
2018-09-17T18:20:46.436Z,72.70
2018-09-17T18:23:15.330Z,72.60
2018-09-17T18:25:43.796Z,73.40
2018-09-17T18:28:12.264Z,72.00
2018-09-17T18:30:40.780Z,72.70
2018-09-17T18:33:09.561Z,73.40
2018-09-17T18:35:38.381Z,73.00
2018-09-17T18:38:07.122Z,72.40
2018-09-17T18:40:35.977Z,73.30
2018-09-17T18:43:04.490Z,73.00
2018-09-17T18:45:32.979Z,73.70
2018-09-17T18:48:01.465Z,74.00
2018-09-17T18:50:29.910Z,73.30
2018-09-17T18:52:58.391Z,73.90
2018-09-17T18:55:26.850Z,73.80
2018-09-17T18:57:55.644Z,74.20
2018-09-17T19:00:24.382Z,75.40
2018-09-17T19:02:53.190Z,76.20
2018-09-17T19:05:21.999Z,76.60
2018-09-17T19:07:50.789Z,76.50
2018-09-17T19:10:19.495Z,77.10
2018-09-17T19:12:48.256Z,77.00
2018-09-17T19:15:22.488Z,77.40
2018-09-17T19:17:51.085Z,77.60
2018-09-17T19:20:19.982Z,78.00
2018-09-17T19:22:53.756Z,78.70
2018-09-17T19:25:22.235Z,78.60
2018-09-17T19:27:56.457Z,78.50
2018-09-17T19:30:24.826Z,79.00
2018-09-17T19:32:53.823Z,79.30
2018-09-17T19:35:22.293Z,79.50
2018-09-17T19:37:56.357Z,79.60
2018-09-17T19:40:24.797Z,79.60
2018-09-17T19:42:53.232Z,79.30
2018-09-17T19:45:27.040Z,80.60
2018-09-17T19:47:56.155Z,80.40
2018-09-17T19:50:29.857Z,80.00
2018-09-17T19:52:58.356Z,80.40
2018-09-17T19:55:26.799Z,80.90
2018-09-17T19:58:00.447Z,81.20
2018-09-17T20:00:28.941Z,81.50
2018-09-17T20:02:57.443Z,81.60
2018-09-17T20:05:31.218Z,81.90
2018-09-17T20:07:59.699Z,81.40
2018-09-17T20:10:28.410Z,81.80
2018-09-17T20:12:56.872Z,82.40
2018-09-17T20:15:25.579Z,82.10
2018-09-17T20:17:54.051Z,82.00
2018-09-17T20:20:22.799Z,82.60
2018-09-17T20:22:51.793Z,82.70
2018-09-17T20:25:20.251Z,83.20
2018-09-17T20:27:49.350Z,83.90
2018-09-17T20:30:17.849Z,84.60
2018-09-17T20:32:46.726Z,83.80
2018-09-17T20:35:15.213Z,84.10
2018-09-17T20:37:43.674Z,84.50
2018-09-17T20:40:12.815Z,84.40
2018-09-17T20:42:41.255Z,84.30
2018-09-17T20:45:10.095Z,84.80
2018-09-17T20:47:38.624Z,84.80
2018-09-17T20:50:07.229Z,85.20
2018-09-17T20:52:35.743Z,85.40
2018-09-17T20:55:04.593Z,85.30
2018-09-17T20:57:33.029Z,85.00
2018-09-17T21:00:01.524Z,85.40
2018-09-17T21:02:30.044Z,85.70
2018-09-17T21:04:59.074Z,86.30
2018-09-17T21:07:27.890Z,86.50
2018-09-17T21:09:56.559Z,86.80
2018-09-17T21:12:25.084Z,87.10
2018-09-17T21:14:53.586Z,87.00
2018-09-17T21:17:22.029Z,87.30
2018-09-17T21:19:50.511Z,87.30
2018-09-17T21:22:19.014Z,87.70
2018-09-17T21:24:47.907Z,87.70
2018-09-17T21:27:16.625Z,87.70
2018-09-17T21:29:45.440Z,88.40
2018-09-17T21:32:14.259Z,88.80
2018-09-17T21:34:42.710Z,89.30
2018-09-17T21:37:11.498Z,89.60
2018-09-17T21:39:40.460Z,89.80
2018-09-17T21:42:09.454Z,90.20
2018-09-17T21:44:37.945Z,90.50
2018-09-17T21:47:06.714Z,90.80
2018-09-17T21:49:35.176Z,90.90
2018-09-17T21:52:04.434Z,91.40
2018-09-17T21:54:32.894Z,91.30
2018-09-17T21:57:01.905Z,91.00
2018-09-17T21:59:30.389Z,91.30
2018-09-17T22:01:58.834Z,91.70
2018-09-17T22:04:27.389Z,91.50
2018-09-17T22:06:55.847Z,91.40
2018-09-17T22:09:24.624Z,91.60
2018-09-17T22:11:53.394Z,91.80
2018-09-17T22:14:22.420Z,92.00
2018-09-17T22:16:50.911Z,92.40
2018-09-17T22:19:19.354Z,92.70
2018-09-17T22:21:48.030Z,92.80
2018-09-17T22:24:16.488Z,92.90
2018-09-17T22:26:45.219Z,93.30
2018-09-17T22:29:14.116Z,93.40
2018-09-17T22:31:42.546Z,93.60
2018-09-17T22:34:11.045Z,93.30
2018-09-17T22:36:39.752Z,93.20
2018-09-17T22:39:09.526Z,93.30
2018-09-17T22:41:38.351Z,93.50
2018-09-17T22:44:07.387Z,93.80
2018-09-17T22:46:35.862Z,94.00
2018-09-17T22:49:04.554Z,94.30
2018-09-17T22:51:33.043Z,94.40
2018-09-17T22:54:01.879Z,94.40
2018-09-17T22:56:30.608Z,94.90
2018-09-17T22:58:59.291Z,95.40
2018-09-17T23:01:27.801Z,95.70
2018-09-17T23:03:56.612Z,96.10
2018-09-17T23:06:25.070Z,96.00
2018-09-17T23:08:53.512Z,96.90
2018-09-17T23:11:22.272Z,97.00
2018-09-17T23:13:50.974Z,96.80
2018-09-17T23:16:19.432Z,97.10
2018-09-17T23:18:47.984Z,97.10
2018-09-17T23:21:16.468Z,97.00
2018-09-17T23:23:45.216Z,96.50
2018-09-17T23:26:13.716Z,96.10
2018-09-17T23:28:42.146Z,96.40
2018-09-17T23:31:10.762Z,96.70
2018-09-17T23:33:39.457Z,97.00
2018-09-17T23:36:08.145Z,97.40
2018-09-17T23:38:36.591Z,97.70
2018-09-17T23:41:05.423Z,97.80
2018-09-17T23:43:33.923Z,98.00
2018-09-17T23:46:02.664Z,98.10
2018-09-17T23:48:31.423Z,98.00
2018-09-17T23:50:59.890Z,98.20
2018-09-17T23:53:28.394Z,98.20
2018-09-17T23:55:57.172Z,98.70
2018-09-17T23:58:25.897Z,98.80
